Time;durP1;ratioP1;P1;durP2;ratioP2;P2;SDS_P1;SDS_P2;PMS_P1;PMS_P2;Temp;Humidity;BMP_temperature;BMP_pressure;BME280_temperature;BME280_humidity;BME280_pressure;Samples;Min_cycle;Max_cycle;Signal;HPM_P1;HPM_P2
2022/06/25 00:02:15;;;;;;;0.00;0.00;;;22.10;99.90;;;;;;5042141;28;20726;-72
2022/06/25 00:07:28;;;;;;;0.00;0.00;;;22.10;99.90;;;;;;5043798;28;20349;-73
2022/06/25 00:09:55;;;;;;;0.00;0.00;;;22.10;99.90;;;;;;5047622;28;20204;-73
2022/06/25 00:12:34;;;;;;;0.00;0.00;;;22.10;99.90;;;;;;5040800;28;20223;-72
2022/06/25 00:15:03;;;;;;;0.00;0.00;;;22.10;99.90;;;;;;5040116;28;20274;-73
2022/06/25 00:17:30;;;;;;;0.00;0.00;;;22.10;99.90;;;;;;5047073;28;20233;-72
2022/06/25 00:19:58;;;;;;;0.00;0.00;;;22.10;99.90;;;;;;5046222;28;20199;-73
2022/06/25 00:22:25;;;;;;;0.00;0.00;;;22.10;99.90;;;;;;5039978;28;20219;-73
2022/06/25 00:24:53;;;;;;;0.00;0.00;;;22.10;99.90;;;;;;5043870;28;20735;-73
2022/06/25 00:27:20;;;;;;;0.00;0.00;;;22.10;99.90;;;;;;5037429;28;20286;-73
2022/06/25 00:29:50;;;;;;;0.00;0.00;;;22.20;99.90;;;;;;5039685;28;20226;-72
2022/06/25 00:32:17;;;;;;;0.00;0.00;;;22.20;99.90;;;;;;5036773;28;20787;-72
2022/06/25 00:34:44;;;;;;;0.00;0.00;;;22.20;99.90;;;;;;5038549;28;20196;-73
2022/06/25 00:37:13;;;;;;;0.00;0.00;;;22.30;99.90;;;;;;5036854;28;20301;-73
2022/06/25 00:39:43;;;;;;;0.00;0.00;;;22.30;99.90;;;;;;5043691;28;20756;-73
2022/06/25 00:42:11;;;;;;;0.00;0.00;;;22.30;99.90;;;;;;5046513;28;20218;-73
2022/06/25 00:44:39;;;;;;;0.00;0.00;;;22.30;99.90;;;;;;5040043;28;20281;-73
2022/06/25 00:47:08;;;;;;;0.00;0.00;;;22.20;99.90;;;;;;5041444;28;20744;-73
2022/06/25 00:49:35;;;;;;;0.00;0.00;;;22.20;99.90;;;;;;5037189;28;20242;-73
2022/06/25 00:52:07;;;;;;;0.00;0.00;;;22.20;99.90;;;;;;5045628;28;20215;-73
2022/06/25 00:54:38;;;;;;;0.00;0.00;;;22.20;99.90;;;;;;5045579;28;20207;-73
2022/06/25 00:57:07;;;;;;;0.00;0.00;;;22.20;99.90;;;;;;5035857;28;20733;-73
2022/06/25 00:59:40;;;;;;;0.00;0.00;;;22.20;99.90;;;;;;5043661;28;20195;-73
2022/06/25 01:02:08;;;;;;;0.00;0.00;;;22.20;99.90;;;;;;5047697;28;20215;-73
2022/06/25 01:04:37;;;;;;;0.00;0.00;;;22.20;99.90;;;;;;5031418;28;20206;-73
2022/06/25 01:07:04;;;;;;;0.00;0.00;;;22.20;99.90;;;;;;5043884;28;20250;-73
2022/06/25 01:09:31;;;;;;;0.00;0.00;;;22.20;99.90;;;;;;5044106;28;20211;-73
2022/06/25 01:11:59;;;;;;;0.00;0.00;;;22.20;99.90;;;;;;5039832;28;20219;-73
2022/06/25 01:14:26;;;;;;;0.00;0.00;;;22.20;99.90;;;;;;5064693;28;20199;-73
2022/06/25 01:16:53;;;;;;;0.00;0.00;;;22.20;99.90;;;;;;5044737;28;20193;-74
2022/06/25 01:19:21;;;;;;;0.00;0.00;;;22.20;99.90;;;;;;5038885;28;20207;-73
2022/06/25 01:21:48;;;;;;;0.00;0.00;;;22.20;99.90;;;;;;5049383;28;20222;-73
2022/06/25 01:24:17;;;;;;;0.00;0.00;;;22.20;99.90;;;;;;5049350;28;20746;-73
2022/06/25 01:26:43;;;;;;;0.00;0.00;;;22.10;99.90;;;;;;5041132;28;20754;-73
2022/06/25 01:29:11;;;;;;;0.00;0.00;;;22.10;99.90;;;;;;5043127;28;20207;-73
2022/06/25 01:31:38;;;;;;;0.00;0.00;;;22.10;99.90;;;;;;5045991;28;20207;-73
2022/06/25 01:34:05;;;;;;;0.00;0.00;;;22.10;99.90;;;;;;5042853;28;20203;-73
2022/06/25 01:36:32;;;;;;;0.00;0.00;;;22.10;99.90;;;;;;5046605;28;20317;-73
2022/06/25 01:38:59;;;;;;;0.00;0.00;;;22.10;99.90;;;;;;5044833;28;21318;-73
2022/06/25 01:41:30;;;;;;;0.00;0.00;;;22.10;99.90;;;;;;5048357;28;20194;-72
2022/06/25 01:43:57;;;;;;;0.00;0.00;;;22.10;99.90;;;;;;5044494;28;20207;-73
2022/06/25 01:46:24;;;;;;;0.00;0.00;;;22.10;99.90;;;;;;5063636;28;20813;-73
2022/06/25 01:48:51;;;;;;;0.00;0.00;;;22.10;99.90;;;;;;5048028;28;20200;-73
2022/06/25 01:51:18;;;;;;;0.00;0.00;;;22.10;99.90;;;;;;5044527;28;20754;-73
2022/06/25 01:53:48;;;;;;;0.00;0.00;;;22.10;99.90;;;;;;5047652;28;20223;-72
2022/06/25 01:56:15;;;;;;;0.00;0.00;;;22.10;99.90;;;;;;5045393;28;20846;-72
2022/06/25 01:58:43;;;;;;;0.00;0.00;;;22.10;99.90;;;;;;5048908;28;20231;-73
2022/06/25 02:01:11;;;;;;;0.00;0.00;;;22.00;99.90;;;;;;5034404;28;20193;-72
2022/06/25 02:03:38;;;;;;;0.00;0.00;;;22.00;99.90;;;;;;5041343;28;20315;-73
2022/06/25 02:06:05;;;;;;;0.00;0.00;;;22.00;99.90;;;;;;5049283;28;20207;-73
2022/06/25 02:08:33;;;;;;;0.00;0.00;;;21.90;99.90;;;;;;5045234;28;20211;-73
2022/06/25 02:11:03;;;;;;;0.00;0.00;;;21.90;99.90;;;;;;5037338;28;20206;-73
2022/06/25 02:13:30;;;;;;;0.00;0.00;;;21.80;99.90;;;;;;5044216;28;20286;-73
2022/06/25 02:15:58;;;;;;;0.00;0.00;;;21.80;99.90;;;;;;5045995;28;20195;-73
2022/06/25 02:18:26;;;;;;;0.00;0.00;;;21.70;99.90;;;;;;5048935;28;20198;-73
2022/06/25 02:20:54;;;;;;;0.00;0.00;;;21.70;99.90;;;;;;5044268;28;20252;-73
2022/06/25 02:23:24;;;;;;;0.00;0.00;;;21.60;99.90;;;;;;5041128;28;20230;-72
2022/06/25 02:25:52;;;;;;;0.00;0.00;;;21.60;99.90;;;;;;5050844;28;20191;-72
2022/06/25 02:28:19;;;;;;;0.00;0.00;;;21.50;99.90;;;;;;5044297;28;20199;-73
2022/06/25 02:30:47;;;;;;;0.00;0.00;;;21.50;99.90;;;;;;5043273;28;20206;-72
2022/06/25 02:33:16;;;;;;;0.00;0.00;;;21.40;99.90;;;;;;5042623;28;20281;-72
2022/06/25 02:35:44;;;;;;;0.00;0.00;;;21.40;99.90;;;;;;5045698;28;20301;-72
2022/06/25 02:38:14;;;;;;;0.00;0.00;;;21.40;99.90;;;;;;5044215;28;20196;-72
2022/06/25 02:40:43;;;;;;;0.00;0.00;;;21.30;99.90;;;;;;5038209;28;20299;-72
2022/06/25 02:43:10;;;;;;;0.00;0.00;;;21.30;99.90;;;;;;5046736;28;20211;-73
2022/06/25 02:45:42;;;;;;;0.00;0.00;;;21.30;99.90;;;;;;5056461;28;20228;-73
2022/06/25 02:48:10;;;;;;;0.00;0.00;;;21.30;99.90;;;;;;5039838;28;20253;-73
2022/06/25 02:50:38;;;;;;;0.00;0.00;;;21.20;99.90;;;;;;5040689;28;20207;-72
2022/06/25 02:53:08;;;;;;;0.00;0.00;;;21.20;99.90;;;;;;5043733;28;20233;-72
2022/06/25 03:01:05;;;;;;;0.00;0.00;;;21.10;99.90;;;;;;5038811;28;20216;-73
2022/06/25 03:03:34;;;;;;;0.00;0.00;;;21.10;99.90;;;;;;5041235;28;20224;-72
2022/06/25 03:06:03;;;;;;;0.00;0.00;;;21.00;99.90;;;;;;5045601;28;20198;-75
2022/06/25 03:08:29;;;;;;;0.00;0.00;;;21.00;99.90;;;;;;5048029;28;20249;-73
2022/06/25 03:10:56;;;;;;;0.00;0.00;;;21.00;99.90;;;;;;5041487;28;20782;-72
2022/06/25 03:13:24;;;;;;;0.00;0.00;;;21.00;99.90;;;;;;5045057;28;20238;-72
2022/06/25 03:15:51;;;;;;;0.00;0.00;;;21.00;99.90;;;;;;5038943;28;20349;-73
2022/06/25 03:18:18;;;;;;;0.00;0.00;;;21.00;99.90;;;;;;5046006;28;20199;-73
2022/06/25 03:21:06;;;;;;;0.00;0.00;;;21.00;99.90;;;;;;5038127;28;20309;-73
2022/06/25 03:23:35;;;;;;;0.00;0.00;;;21.00;99.90;;;;;;5033941;28;20758;-73
2022/06/25 03:26:02;;;;;;;0.00;0.00;;;21.00;99.90;;;;;;5038389;28;20210;-72
2022/06/25 03:28:30;;;;;;;0.00;0.00;;;21.00;99.90;;;;;;5057011;28;20211;-72
2022/06/25 03:30:58;;;;;;;0.00;0.00;;;21.00;99.90;;;;;;5045188;28;20223;-72
2022/06/25 03:33:26;;;;;;;0.00;0.00;;;21.00;99.90;;;;;;5032989;28;20215;-72
2022/06/25 03:36:06;;;;;;;0.00;0.00;;;21.00;99.90;;;;;;5042396;28;20203;-72
2022/06/25 03:38:40;;;;;;;0.00;0.00;;;21.00;99.90;;;;;;5037175;28;20199;-72
2022/06/25 03:43:54;;;;;;;0.00;0.00;;;21.00;99.90;;;;;;5038485;28;20219;-72
2022/06/25 03:46:21;;;;;;;0.00;0.00;;;21.00;99.90;;;;;;5043139;28;20228;-72
2022/06/25 03:48:50;;;;;;;0.00;0.00;;;20.90;99.90;;;;;;5040194;28;20200;-73
2022/06/25 03:51:41;;;;;;;0.00;0.00;;;20.90;99.90;;;;;;5041950;28;20196;-72
2022/06/25 03:54:08;;;;;;;0.00;0.00;;;20.90;99.90;;;;;;5039077;28;20211;-73
2022/06/25 03:56:35;;;;;;;0.00;0.00;;;20.90;99.90;;;;;;5039167;28;20188;-73
2022/06/25 03:59:02;;;;;;;0.00;0.00;;;20.90;99.90;;;;;;5043254;28;20203;-73
2022/06/25 04:01:29;;;;;;;0.00;0.00;;;20.90;99.90;;;;;;5037854;28;20309;-73
2022/06/25 04:03:56;;;;;;;0.00;0.00;;;20.80;99.90;;;;;;5043250;28;20223;-73
2022/06/25 04:06:24;;;;;;;0.00;0.00;;;20.90;99.90;;;;;;5042531;28;20313;-73
2022/06/25 04:08:59;;;;;;;0.00;0.00;;;20.90;99.90;;;;;;5041784;28;20210;-72
2022/06/25 04:11:26;;;;;;;0.00;0.00;;;20.90;99.90;;;;;;5041957;28;20221;-73
2022/06/25 04:13:57;;;;;;;0.00;0.00;;;20.80;99.90;;;;;;5042118;28;20215;-73
2022/06/25 04:16:24;;;;;;;0.00;0.00;;;20.80;99.90;;;;;;5040850;28;20206;-74
2022/06/25 04:18:53;;;;;;;0.00;0.00;;;20.80;99.90;;;;;;5037147;28;20204;-73
2022/06/25 04:21:24;;;;;;;0.00;0.00;;;20.90;99.90;;;;;;5039497;28;20293;-73
2022/06/25 04:23:52;;;;;;;0.00;0.00;;;20.90;99.90;;;;;;5042479;28;20237;-74
2022/06/25 04:26:23;;;;;;;0.00;0.00;;;20.90;99.90;;;;;;5034857;28;20253;-73
2022/06/25 04:29:05;;;;;;;0.00;0.00;;;21.00;99.90;;;;;;5043951;28;20214;-73
2022/06/25 04:31:51;;;;;;;0.00;0.00;;;21.00;99.90;;;;;;5040359;28;20233;-74
2022/06/25 04:34:38;;;;;;;0.00;0.00;;;21.10;99.90;;;;;;5012569;28;20208;-73
2022/06/25 04:37:05;;;;;;;0.00;0.00;;;21.10;99.90;;;;;;5035502;28;20291;-73
2022/06/25 04:39:34;;;;;;;0.00;0.00;;;21.20;99.90;;;;;;5043950;28;20196;-74
2022/06/25 04:42:02;;;;;;;0.00;0.00;;;21.40;99.90;;;;;;5037785;28;20235;-73
2022/06/25 04:44:31;;;;;;;0.00;0.00;;;21.50;99.90;;;;;;5040030;28;20207;-73
2022/06/25 04:46:59;;;;;;;0.00;0.00;;;21.70;99.90;;;;;;5038528;28;20277;-73
2022/06/25 04:49:38;;;;;;;0.00;0.00;;;21.90;99.90;;;;;;5040432;28;20195;-73
2022/06/25 04:52:05;;;;;;;0.00;0.00;;;22.20;99.90;;;;;;5044687;28;20223;-73
2022/06/25 04:54:32;;;;;;;0.00;0.00;;;22.40;99.90;;;;;;5046401;28;20239;-73
2022/06/25 04:57:11;;;;;;;0.00;0.00;;;22.60;99.90;;;;;;5036152;28;20191;-73
2022/06/25 04:59:58;;;;;;;0.00;0.00;;;22.90;99.90;;;;;;5035522;28;20203;-73
2022/06/25 05:02:35;;;;;;;0.00;0.00;;;23.10;99.90;;;;;;5031066;28;20215;-73
2022/06/25 05:05:07;;;;;;;0.00;0.00;;;23.30;99.90;;;;;;5031082;28;20204;-73
2022/06/25 05:07:34;;;;;;;0.00;0.00;;;23.50;99.90;;;;;;5046302;28;20227;-73
2022/06/25 05:10:01;;;;;;;0.00;0.00;;;23.70;99.90;;;;;;5040188;28;20207;-73
2022/06/25 05:15:22;;;;;;;0.00;0.00;;;24.10;99.90;;;;;;5008151;28;20219;-73
2022/06/25 05:17:49;;;;;;;0.00;0.00;;;24.20;99.90;;;;;;5043680;28;20191;-73
2022/06/25 05:20:20;;;;;;;0.00;0.00;;;24.40;99.90;;;;;;5044179;28;20207;-70
2022/06/25 05:22:47;;;;;;;0.00;0.00;;;24.60;99.90;;;;;;5035852;28;20286;-72
2022/06/25 05:25:14;;;;;;;0.00;0.00;;;24.80;99.90;;;;;;5035149;28;20733;-72
2022/06/25 05:27:42;;;;;;;0.00;0.00;;;24.90;99.90;;;;;;5050629;28;20287;-74
2022/06/25 05:30:10;;;;;;;0.00;0.00;;;25.10;99.90;;;;;;5038025;28;20219;-74
2022/06/25 05:32:37;;;;;;;0.00;0.00;;;25.20;99.90;;;;;;5030298;28;20227;-74
2022/06/25 05:35:05;;;;;;;0.00;0.00;;;25.40;99.90;;;;;;5041662;28;20207;-73
2022/06/25 05:37:32;;;;;;;0.00;0.00;;;25.50;99.90;;;;;;5039708;28;20212;-72
2022/06/25 05:39:59;;;;;;;0.00;0.00;;;25.60;99.90;;;;;;5045248;28;20191;-72
2022/06/25 05:42:26;;;;;;;0.00;0.00;;;25.70;99.90;;;;;;5040648;28;20224;-72
2022/06/25 05:44:54;;;;;;;0.00;0.00;;;25.80;99.90;;;;;;5041742;28;20203;-72
2022/06/25 05:47:21;;;;;;;0.00;0.00;;;25.80;99.90;;;;;;5046212;28;20234;-72
2022/06/25 05:49:48;;;;;;;0.00;0.00;;;25.90;99.90;;;;;;5047073;28;20290;-74
2022/06/25 05:52:16;;;;;;;0.00;0.00;;;25.90;99.90;;;;;;5045763;28;20228;-73
2022/06/25 05:54:43;;;;;;;0.00;0.00;;;25.90;99.90;;;;;;5039929;28;20294;-72
2022/06/25 05:57:09;;;;;;;0.00;0.00;;;25.80;99.90;;;;;;5035947;28;20290;-72
2022/06/25 05:59:36;;;;;;;0.00;0.00;;;25.70;99.90;;;;;;5038567;28;20677;-74
2022/06/25 06:02:05;;;;;;;0.00;0.00;;;25.60;99.90;;;;;;5046851;28;20215;-74
2022/06/25 06:04:32;;;;;;;0.00;0.00;;;25.50;99.90;;;;;;5040554;28;20214;-75
2022/06/25 06:07:00;;;;;;;0.00;0.00;;;25.60;99.90;;;;;;5050805;28;20207;-74
2022/06/25 06:09:28;;;;;;;0.00;0.00;;;25.60;99.90;;;;;;5046926;28;20240;-78
2022/06/25 06:11:55;;;;;;;0.00;0.00;;;25.50;99.90;;;;;;5050573;28;20230;-78
2022/06/25 06:14:23;;;;;;;0.00;0.00;;;25.50;99.90;;;;;;5039889;28;20237;-77
2022/06/25 06:16:50;;;;;;;0.00;0.00;;;25.50;99.90;;;;;;5043376;28;20208;-76
2022/06/25 06:19:18;;;;;;;0.00;0.00;;;25.60;99.90;;;;;;5040325;28;20294;-80
2022/06/25 06:21:45;;;;;;;0.00;0.00;;;25.60;99.90;;;;;;5037827;28;20199;-77
2022/06/25 06:24:12;;;;;;;0.00;0.00;;;25.60;99.90;;;;;;5046304;28;20202;-79
2022/06/25 06:26:39;;;;;;;0.00;0.00;;;25.70;99.90;;;;;;5037528;28;20287;-77
2022/06/25 06:29:06;;;;;;;0.00;0.00;;;25.80;99.90;;;;;;5042282;28;20654;-78
2022/06/25 06:31:33;;;;;;;0.00;0.00;;;25.80;99.90;;;;;;5039946;28;20199;-76
2022/06/25 06:34:00;;;;;;;0.00;0.00;;;25.90;99.90;;;;;;5046999;28;20222;-77
2022/06/25 06:36:28;;;;;;;0.00;0.00;;;25.90;99.90;;;;;;5044450;28;20195;-78
2022/06/25 06:38:55;;;;;;;0.00;0.00;;;25.90;99.90;;;;;;5044434;28;20204;-78
2022/06/25 06:41:22;;;;;;;0.00;0.00;;;25.90;99.90;;;;;;5041036;28;20268;-78
2022/06/25 06:43:50;;;;;;;0.00;0.00;;;25.90;99.90;;;;;;5044538;28;20222;-77
2022/06/25 06:46:19;;;;;;;0.00;0.00;;;25.80;99.90;;;;;;5040793;28;20214;-76
2022/06/25 06:48:46;;;;;;;0.00;0.00;;;25.70;99.90;;;;;;5048765;28;20215;-79
2022/06/25 06:51:13;;;;;;;0.00;0.00;;;25.70;99.90;;;;;;5047149;28;20231;-78
2022/06/25 06:53:41;;;;;;;0.00;0.00;;;25.70;99.90;;;;;;5038814;28;20243;-78
2022/06/25 06:56:08;;;;;;;0.00;0.00;;;25.60;99.90;;;;;;5045498;28;20207;-80
2022/06/25 06:58:35;;;;;;;0.00;0.00;;;25.60;99.90;;;;;;5042095;28;20188;-76
2022/06/25 07:01:02;;;;;;;0.00;0.00;;;25.60;99.90;;;;;;5041727;28;20818;-77
2022/06/25 07:03:29;;;;;;;0.00;0.00;;;25.50;99.90;;;;;;5041107;28;20223;-78
2022/06/25 07:05:56;;;;;;;0.00;0.00;;;25.50;99.90;;;;;;5043294;28;20653;-77
2022/06/25 07:08:24;;;;;;;0.00;0.00;;;25.50;99.90;;;;;;5047163;28;20304;-76
2022/06/25 07:10:52;;;;;;;0.00;0.00;;;25.50;99.90;;;;;;5045742;28;20211;-77
2022/06/25 07:13:20;;;;;;;0.00;0.00;;;25.40;99.90;;;;;;5046503;28;20225;-76
2022/06/25 07:15:47;;;;;;;0.00;0.00;;;25.40;99.90;;;;;;5040030;28;20199;-78
2022/06/25 07:18:14;;;;;;;0.00;0.00;;;25.40;99.90;;;;;;5040787;28;20187;-77
2022/06/25 07:20:41;;;;;;;0.00;0.00;;;25.50;99.90;;;;;;5037784;28;20758;-80
2022/06/25 07:23:08;;;;;;;0.00;0.00;;;25.50;99.90;;;;;;5042814;28;20215;-78
2022/06/25 07:25:35;;;;;;;0.00;0.00;;;25.60;99.90;;;;;;5036921;28;20208;-77
2022/06/25 07:28:12;;;;;;;0.00;0.00;;;25.70;99.90;;;;;;5041094;28;20224;-77
2022/06/25 07:30:44;;;;;;;0.00;0.00;;;25.90;99.90;;;;;;5027857;28;20211;-79
2022/06/25 07:33:10;;;;;;;0.00;0.00;;;26.30;99.90;;;;;;5040983;28;20223;-77
2022/06/25 07:35:37;;;;;;;0.00;0.00;;;26.70;99.90;;;;;;5037675;28;20278;-78
2022/06/25 07:38:04;;;;;;;0.00;0.00;;;27.00;99.90;;;;;;5045486;28;20227;-79
2022/06/25 07:40:30;;;;;;;0.00;0.00;;;27.40;99.90;;;;;;5041822;28;20238;-78
2022/06/25 07:42:57;;;;;;;0.00;0.00;;;27.70;99.90;;;;;;5040609;28;20219;-78
2022/06/25 07:45:25;;;;;;;0.00;0.00;;;27.60;99.90;;;;;;5043166;28;20303;-77
2022/06/25 07:47:52;;;;;;;0.00;0.00;;;27.70;99.90;;;;;;5034975;28;20216;-78
2022/06/25 07:53:04;;;;;;;0.00;0.00;;;27.60;99.90;;;;;;5040062;28;20210;-79
2022/06/25 07:55:31;;;;;;;0.00;0.00;;;27.60;99.90;;;;;;5041309;28;20204;-79
2022/06/25 07:57:58;;;;;;;0.00;0.00;;;27.60;99.90;;;;;;5039617;28;20223;-76
2022/06/25 08:00:26;;;;;;;0.00;0.00;;;27.60;99.90;;;;;;5044731;28;20202;-77
2022/06/25 08:02:53;;;;;;;0.00;0.00;;;27.50;99.90;;;;;;5037816;28;20240;-75
2022/06/25 08:05:20;;;;;;;0.00;0.00;;;27.50;99.90;;;;;;5041464;28;20285;-78
2022/06/25 08:07:49;;;;;;;0.00;0.00;;;27.40;99.90;;;;;;5041314;28;20221;-78
2022/06/25 08:10:16;;;;;;;0.00;0.00;;;27.40;99.90;;;;;;5037187;28;20204;-78
2022/06/25 08:12:43;;;;;;;0.00;0.00;;;27.50;99.90;;;;;;5041958;28;20302;-77
2022/06/25 08:15:12;;;;;;;0.00;0.00;;;27.50;99.90;;;;;;5046191;28;20209;-77
2022/06/25 08:17:41;;;;;;;0.00;0.00;;;27.60;99.90;;;;;;5043457;28;20297;-76
2022/06/25 08:20:09;;;;;;;0.00;0.00;;;27.50;99.90;;;;;;5044684;28;20217;-77
2022/06/25 08:22:36;;;;;;;0.00;0.00;;;27.60;99.90;;;;;;5045852;28;20297;-79
2022/06/25 08:25:05;;;;;;;0.00;0.00;;;27.70;99.90;;;;;;5038236;28;20210;-77
2022/06/25 08:27:32;;;;;;;0.00;0.00;;;27.90;99.90;;;;;;5042515;28;20246;-77
2022/06/25 08:29:59;;;;;;;0.00;0.00;;;28.10;99.90;;;;;;5040738;28;20215;-76
2022/06/25 08:32:26;;;;;;;0.00;0.00;;;28.30;99.90;;;;;;5045594;28;20227;-77
2022/06/25 08:34:54;;;;;;;0.00;0.00;;;28.50;99.90;;;;;;5046484;28;20191;-78
2022/06/25 08:37:21;;;;;;;0.00;0.00;;;28.60;99.90;;;;;;5038536;28;20209;-78
2022/06/25 08:39:48;;;;;;;0.00;0.00;;;28.70;99.90;;;;;;5036197;28;20192;-78
2022/06/25 08:42:14;;;;;;;0.00;0.00;;;28.70;99.90;;;;;;5037857;28;20223;-77
2022/06/25 08:44:41;;;;;;;0.00;0.00;;;28.90;99.90;;;;;;5040432;28;20206;-77
2022/06/25 08:47:08;;;;;;;0.00;0.00;;;29.00;99.90;;;;;;5036918;28;20207;-77
2022/06/25 08:49:36;;;;;;;0.00;0.00;;;;;;;;;;5039970;28;20226;-77
2022/06/25 08:52:05;;;;;;;0.00;0.00;;;;;;;;;;5045202;28;20215;-78
2022/06/25 08:54:34;;;;;;;0.00;0.00;;;29.50;99.90;;;;;;5044609;28;20235;-76
2022/06/25 08:57:01;;;;;;;0.00;0.00;;;29.80;99.90;;;;;;5044165;28;20268;-78
2022/06/25 08:59:29;;;;;;;0.00;0.00;;;29.90;99.90;;;;;;5036559;28;20223;-77
2022/06/25 09:01:56;;;;;;;0.00;0.00;;;30.00;99.90;;;;;;5038763;28;20301;-77
2022/06/25 09:04:23;;;;;;;0.00;0.00;;;30.10;99.90;;;;;;5034142;28;20202;-77
2022/06/25 09:06:50;;;;;;;0.00;0.00;;;30.20;99.90;;;;;;5037217;28;20199;-77
2022/06/25 09:09:19;;;;;;;0.00;0.00;;;30.30;99.90;;;;;;5035820;28;20583;-76
2022/06/25 09:11:54;;;;;;;0.00;0.00;;;30.30;99.90;;;;;;5039206;28;20207;-77
2022/06/25 09:14:24;;;;;;;0.00;0.00;;;30.30;99.90;;;;;;5044809;28;20211;-78
2022/06/25 09:16:56;;;;;;;0.00;0.00;;;30.30;99.90;;;;;;5043674;28;20270;-78
2022/06/25 09:19:34;;;;;;;0.00;0.00;;;30.40;99.90;;;;;;5033449;28;20238;-77
2022/06/25 09:22:03;;;;;;;0.00;0.00;;;30.50;99.90;;;;;;5033788;28;20284;-77
2022/06/25 09:24:42;;;;;;;0.00;0.00;;;30.50;99.90;;;;;;5039325;28;20223;-77
2022/06/25 09:27:09;;;;;;;0.00;0.00;;;30.30;99.90;;;;;;5037142;28;20214;-76
2022/06/25 09:29:40;;;;;;;0.00;0.00;;;30.20;99.90;;;;;;5043434;28;20246;-77
2022/06/25 09:32:08;;;;;;;0.00;0.00;;;30.00;99.90;;;;;;5041463;28;20220;-77
2022/06/25 09:34:36;;;;;;;0.00;0.00;;;30.20;99.90;;;;;;5040987;28;20227;-77
2022/06/25 09:37:20;;;;;;;0.00;0.00;;;30.20;99.90;;;;;;5043629;28;20211;-77
2022/06/25 09:39:50;;;;;;;0.00;0.00;;;30.30;99.90;;;;;;5040883;28;20254;-77
2022/06/25 09:42:22;;;;;;;0.00;0.00;;;;;;;;;;5040560;28;20223;-77
2022/06/25 09:44:50;;;;;;;0.00;0.00;;;;;;;;;;5044143;28;20207;-77
2022/06/25 09:47:18;;;;;;;0.00;0.00;;;;;;;;;;5044601;28;20210;-79
2022/06/25 09:49:45;;;;;;;0.00;0.00;;;;;;;;;;5043263;28;20219;-76
2022/06/25 09:52:13;;;;;;;0.00;0.00;;;;;;;;;;5042916;28;20219;-78
2022/06/25 09:54:40;;;;;;;0.00;0.00;;;30.90;99.90;;;;;;5045656;28;20207;-76
2022/06/25 09:57:10;;;;;;;0.00;0.00;;;31.00;99.90;;;;;;5044383;28;20227;-77
2022/06/25 09:59:41;;;;;;;0.00;0.00;;;31.00;99.90;;;;;;5040841;28;20211;-77
2022/06/25 10:02:09;;;;;;;0.00;0.00;;;31.00;99.90;;;;;;5057309;28;20219;-77
2022/06/25 10:04:36;;;;;;;0.00;0.00;;;31.20;99.90;;;;;;5065914;28;20199;-77
2022/06/25 10:07:10;;;;;;;0.00;0.00;;;31.20;99.90;;;;;;5041529;28;20200;-77
2022/06/25 10:09:41;;;;;;;0.00;0.00;;;31.40;99.90;;;;;;5046126;28;20231;-76
2022/06/25 10:12:10;;;;;;;0.00;0.00;;;31.30;99.90;;;;;;5044659;28;20216;-76
2022/06/25 10:14:37;;;;;;;0.00;0.00;;;31.30;99.90;;;;;;5040714;28;20661;-76
2022/06/25 10:17:05;;;;;;;0.00;0.00;;;31.30;99.90;;;;;;5043987;28;20207;-77
2022/06/25 10:19:32;;;;;;;0.00;0.00;;;31.10;99.90;;;;;;5039097;28;20295;-76
2022/06/25 10:22:00;;;;;;;0.00;0.00;;;31.10;99.90;;;;;;5040368;28;20313;-75
2022/06/25 10:24:28;;;;;;;0.00;0.00;;;31.10;99.90;;;;;;5045753;28;20196;-77
2022/06/25 10:26:55;;;;;;;0.00;0.00;;;31.10;99.90;;;;;;5042670;28;20207;-79
2022/06/25 10:29:28;;;;;;;0.00;0.00;;;31.10;99.90;;;;;;5046589;28;20223;-77
2022/06/25 10:32:13;;;;;;;0.00;0.00;;;31.10;99.90;;;;;;5048306;28;20677;-77
2022/06/25 10:34:55;;;;;;;0.00;0.00;;;31.10;99.90;;;;;;5046327;28;20203;-78
2022/06/25 10:37:22;;;;;;;0.00;0.00;;;31.00;99.90;;;;;;5041187;28;20204;-77
2022/06/25 10:39:52;;;;;;;0.00;0.00;;;30.90;99.90;;;;;;5044363;28;20195;-77
2022/06/25 10:45:44;;;;;;;0.00;0.00;;;31.00;99.90;;;;;;5037257;28;20203;-78
2022/06/25 10:48:14;;;;;;;0.00;0.00;;;30.90;99.90;;;;;;5029017;28;20210;-78
2022/06/25 10:50:48;;;;;;;0.00;0.00;;;30.90;99.90;;;;;;5047506;28;20197;-78
2022/06/25 10:53:33;;;;;;;0.00;0.00;;;31.00;99.90;;;;;;5042453;28;20210;-78
2022/06/25 10:56:19;;;;;;;0.00;0.00;;;30.80;99.90;;;;;;5043502;28;20203;-78
2022/06/25 10:58:48;;;;;;;0.00;0.00;;;30.70;99.90;;;;;;5042600;28;20208;-77
2022/06/25 11:01:34;;;;;;;0.00;0.00;;;30.30;99.90;;;;;;5033964;28;20284;-77
2022/06/25 11:04:06;;;;;;;0.00;0.00;;;30.00;99.90;;;;;;5045234;28;20203;-77
2022/06/25 11:06:36;;;;;;;0.00;0.00;;;29.90;99.90;;;;;;5044369;28;20285;-79
2022/06/25 11:09:06;;;;;;;0.00;0.00;;;30.20;99.90;;;;;;5045106;28;20730;-81
2022/06/25 11:11:35;;;;;;;0.00;0.00;;;30.40;99.90;;;;;;5044545;28;20207;-79
2022/06/25 11:14:04;;;;;;;0.00;0.00;;;30.80;99.90;;;;;;5049762;28;20222;-76
2022/06/25 11:16:31;;;;;;;0.00;0.00;;;30.60;99.90;;;;;;5039174;28;20206;-76
2022/06/25 11:19:03;;;;;;;0.00;0.00;;;30.20;99.90;;;;;;5046521;28;20321;-78
2022/06/25 11:21:34;;;;;;;0.00;0.00;;;30.10;99.90;;;;;;5039782;28;20203;-78
2022/06/25 11:24:10;;;;;;;0.00;0.00;;;29.90;99.90;;;;;;5042568;28;20285;-76
2022/06/25 11:29:23;;;;;;;0.00;0.00;;;29.80;99.90;;;;;;5044609;28;20218;-77
2022/06/25 11:31:51;;;;;;;0.00;0.00;;;29.70;99.90;;;;;;5044072;28;20206;-77
2022/06/25 11:34:19;;;;;;;0.00;0.00;;;29.60;99.90;;;;;;5041637;28;20215;-76
2022/06/25 11:36:55;;;;;;;0.00;0.00;;;29.60;99.90;;;;;;5043265;28;20214;-76
2022/06/25 11:39:22;;;;;;;0.00;0.00;;;29.50;99.90;;;;;;5042220;28;20672;-77
2022/06/25 11:41:51;;;;;;;0.00;0.00;;;29.50;99.90;;;;;;5040203;28;20208;-76
2022/06/25 11:44:18;;;;;;;0.00;0.00;;;29.40;99.90;;;;;;5041284;28;20203;-78
2022/06/25 11:46:45;;;;;;;0.00;0.00;;;29.40;99.90;;;;;;5032562;28;20204;-78
2022/06/25 11:49:13;;;;;;;0.00;0.00;;;29.30;99.90;;;;;;5042395;28;20723;-77
2022/06/25 11:51:44;;;;;;;0.00;0.00;;;29.40;99.90;;;;;;5045926;28;20226;-77
2022/06/25 11:54:14;;;;;;;0.00;0.00;;;29.50;99.90;;;;;;5064147;28;20199;-78
2022/06/25 11:56:49;;;;;;;0.00;0.00;;;29.60;99.90;;;;;;5038487;28;20204;-78
2022/06/25 11:59:23;;;;;;;0.00;0.00;;;29.70;99.90;;;;;;5043385;28;20199;-77
2022/06/25 12:01:51;;;;;;;0.00;0.00;;;29.70;99.90;;;;;;5047711;28;20265;-75
2022/06/25 12:04:18;;;;;;;0.00;0.00;;;29.70;99.90;;;;;;5045567;28;20226;-76
2022/06/25 12:06:47;;;;;;;0.00;0.00;;;29.90;99.90;;;;;;5047821;28;20223;-77
2022/06/25 12:09:16;;;;;;;0.00;0.00;;;30.20;99.90;;;;;;5037971;28;20247;-76
2022/06/25 12:11:51;;;;;;;0.00;0.00;;;30.60;99.90;;;;;;5041933;28;20200;-77
2022/06/25 12:14:23;;;;;;;0.00;0.00;;;31.10;99.90;;;;;;5043507;28;20206;-78
2022/06/25 12:16:50;;;;;;;0.00;0.00;;;31.30;99.90;;;;;;5037361;28;20219;-77
2022/06/25 12:19:18;;;;;;;0.00;0.00;;;;;;;;;;5040458;28;20203;-77
2022/06/25 12:21:45;;;;;;;0.00;0.00;;;;;;;;;;5046258;28;20245;-76
2022/06/25 12:24:13;;;;;;;0.00;0.00;;;;;;;;;;5038782;28;20196;-77
2022/06/25 12:26:43;;;;;;;0.00;0.00;;;;;;;;;;5044615;28;20203;-78
2022/06/25 12:29:12;;;;;;;0.00;0.00;;;;;;;;;;5041776;28;20251;-77
2022/06/25 12:31:39;;;;;;;0.00;0.00;;;;;;;;;;5037079;28;20211;-76
2022/06/25 12:34:06;;;;;;;0.00;0.00;;;;;;;;;;5040516;28;20206;-76
2022/06/25 12:36:38;;;;;;;0.00;0.00;;;;;;;;;;5040968;28;20256;-75
2022/06/25 12:39:20;;;;;;;0.00;0.00;;;;;;;;;;5047683;28;20226;-76
2022/06/25 12:41:49;;;;;;;0.00;0.00;;;;;;;;;;5040393;28;20222;-76
2022/06/25 12:44:17;;;;;;;0.00;0.00;;;;;;;;;;5042063;28;20727;-76
2022/06/25 12:46:58;;;;;;;0.00;0.00;;;;;;;;;;5042034;28;20242;-76
2022/06/25 12:49:26;;;;;;;0.00;0.00;;;;;;;;;;5061851;28;20717;-76
2022/06/25 12:51:53;;;;;;;0.00;0.00;;;;;;;;;;5034845;28;20200;-77
2022/06/25 12:54:20;;;;;;;0.00;0.00;;;;;;;;;;5044220;28;20202;-76
2022/06/25 12:56:54;;;;;;;0.00;0.00;;;;;;;;;;5043765;28;20199;-77
2022/06/25 12:59:22;;;;;;;0.00;0.00;;;;;;;;;;5039584;28;20291;-76
2022/06/25 13:01:49;;;;;;;0.00;0.00;;;;;;;;;;5043044;28;20209;-75
2022/06/25 13:04:17;;;;;;;0.00;0.00;;;;;;;;;;5032570;28;20206;-74
2022/06/25 13:06:44;;;;;;;0.00;0.00;;;;;;;;;;5042133;28;20209;-77
2022/06/25 13:09:11;;;;;;;0.00;0.00;;;;;;;;;;5049562;28;20198;-76
2022/06/25 13:11:40;;;;;;;0.00;0.00;;;;;;;;;;5047878;28;20207;-77
2022/06/25 13:14:08;;;;;;;0.00;0.00;;;;;;;;;;5042780;28;20200;-76
2022/06/25 13:16:35;;;;;;;0.00;0.00;;;;;;;;;;5041276;28;20223;-76
2022/06/25 13:19:03;;;;;;;0.00;0.00;;;;;;;;;;5047817;28;20205;-76
2022/06/25 13:21:30;;;;;;;0.00;0.00;;;;;;;;;;5045832;28;20210;-79
2022/06/25 13:23:57;;;;;;;0.00;0.00;;;;;;;;;;5044667;28;20252;-78
2022/06/25 13:26:26;;;;;;;0.00;0.00;;;;;;;;;;5047346;28;20202;-77
2022/06/25 13:28:54;;;;;;;0.00;0.00;;;;;;;;;;5041364;28;20211;-79
2022/06/25 13:31:23;;;;;;;0.00;0.00;;;;;;;;;;5045896;28;20223;-75
2022/06/25 13:33:50;;;;;;;0.00;0.00;;;;;;;;;;5041626;28;20218;-77